Time;durP1;ratioP1;P1;durP2;ratioP2;P2;SDS_P1;SDS_P2;PMS_P1;PMS_P2;Temp;Humidity;BMP_temperature;BMP_pressure;BME280_temperature;BME280_humidity;BME280_pressure;Samples;Min_cycle;Max_cycle;Signal;HPM_P1;HPM_P2
2021/11/01 00:01:01;;;;;;;14.83;13.43;;;;;;;5.82;100.00;96731.88;5046711;28;20229;-69
2021/11/01 00:03:30;;;;;;;15.47;13.87;;;;;;;5.80;100.00;96737.28;5016627;28;20253;-68
2021/11/01 00:05:58;;;;;;;16.63;14.87;;;;;;;5.86;100.00;96732.38;5050834;28;20315;-69
2021/11/01 00:08:28;;;;;;;16.17;14.37;;;;;;;5.77;100.00;96735.00;5043866;28;20231;-69
2021/11/01 00:10:56;;;;;;;15.63;13.97;;;;;;;5.80;100.00;96736.50;5049896;28;20227;-68
2021/11/01 00:13:24;;;;;;;16.50;14.57;;;;;;;5.82;100.00;96738.94;5054005;28;20213;-67
2021/11/01 00:15:52;;;;;;;15.90;14.13;;;;;;;5.76;100.00;96729.94;5049034;28;20203;-68
2021/11/01 00:18:20;;;;;;;16.43;14.67;;;;;;;5.85;100.00;96736.81;5021597;28;20214;-68
2021/11/01 00:20:48;;;;;;;15.73;14.03;;;;;;;5.78;100.00;96738.47;5047605;28;20400;-68
2021/11/01 00:23:16;;;;;;;16.83;15.03;;;;;;;5.69;100.00;96728.94;5043102;28;20578;-69
2021/11/01 00:25:45;;;;;;;18.07;15.53;;;;;;;5.66;100.00;96730.09;5047471;28;20218;-68
2021/11/01 00:28:14;;;;;;;17.60;15.30;;;;;;;5.71;100.00;96733.03;5042117;28;20333;-68
2021/11/01 00:30:42;;;;;;;17.57;15.00;;;;;;;5.72;100.00;96726.78;5047221;28;20226;-67
2021/11/01 00:33:10;;;;;;;17.53;15.37;;;;;;;5.71;100.00;96724.34;5018974;28;20679;-69
2021/11/01 00:35:39;;;;;;;19.57;16.27;;;;;;;5.68;100.00;96720.22;5035681;28;20199;-70
2021/11/01 00:38:08;;;;;;;17.33;15.43;;;;;;;5.74;100.00;96721.38;5035294;28;20199;-69
2021/11/01 00:40:36;;;;;;;21.27;16.93;;;;;;;5.90;100.00;96716.09;5038020;28;20246;-68
2021/11/01 00:43:05;;;;;;;18.33;15.03;;;;;;;5.94;100.00;96709.53;5041329;28;20241;-69
2021/11/01 00:45:33;;;;;;;20.47;17.30;;;;;;;5.95;100.00;96710.34;5049084;28;20214;-69
2021/11/01 00:48:02;;;;;;;16.93;15.23;;;;;;;5.92;100.00;96711.50;5044415;28;20223;-69
2021/11/01 00:50:31;;;;;;;20.03;15.97;;;;;;;5.75;100.00;96707.25;5012360;28;20262;-67
2021/11/01 00:52:59;;;;;;;20.10;17.43;;;;;;;5.77;100.00;96710.53;5005634;28;20223;-68
2021/11/01 00:55:34;;;;;;;18.57;16.17;;;;;;;5.82;100.00;96710.03;5049946;28;20463;-68
2021/11/01 00:58:02;;;;;;;21.00;17.73;;;;;;;5.79;100.00;96703.31;5047225;28;20207;-67
2021/11/01 01:00:32;;;;;;;21.17;17.10;;;;;;;5.98;100.00;96701.28;5050442;28;20681;-66
2021/11/01 01:03:00;;;;;;;21.27;17.40;;;;;;;5.82;100.00;96710.03;5033485;28;20576;-67
2021/11/01 01:05:28;;;;;;;23.90;19.00;;;;;;;5.77;100.00;96706.09;5052675;28;20222;-69
2021/11/01 01:07:56;;;;;;;20.83;17.93;;;;;;;5.86;100.00;96713.97;5014011;28;20309;-68
2021/11/01 01:10:24;;;;;;;23.77;18.43;;;;;;;5.89;100.00;96713.66;5048899;28;20524;-69
2021/11/01 01:12:52;;;;;;;18.37;15.70;;;;;;;5.85;100.00;96712.31;5045771;28;20230;-67
2021/11/01 01:15:22;;;;;;;19.57;16.53;;;;;;;5.91;100.00;96717.75;5049121;28;20412;-67
2021/11/01 01:17:52;;;;;;;19.13;17.03;;;;;;;5.87;100.00;96715.59;5041712;28;20215;-67
2021/11/01 01:20:21;;;;;;;18.97;16.13;;;;;;;5.92;100.00;96718.56;5043270;28;20435;-68
2021/11/01 01:22:49;;;;;;;17.77;15.90;;;;;;;5.96;100.00;96725.16;5002422;28;20227;-68
2021/11/01 01:25:24;;;;;;;19.63;16.67;;;;;;;5.97;100.00;96708.38;5045453;28;20699;-67
2021/11/01 01:27:53;;;;;;;18.73;16.73;;;;;;;5.80;100.00;96705.75;5024077;28;20213;-68
2021/11/01 01:30:23;;;;;;;19.73;16.30;;;;;;;5.76;100.00;96701.00;5031535;28;20377;-68
2021/11/01 01:32:52;;;;;;;18.67;16.67;;;;;;;5.69;100.00;96698.22;5054025;28;20367;-68
2021/11/01 01:35:20;;;;;;;17.67;15.63;;;;;;;5.68;100.00;96690.47;5049125;28;20470;-67
2021/11/01 01:37:52;;;;;;;18.27;16.33;;;;;;;5.84;100.00;96689.63;5049112;28;20207;-68
2021/11/01 01:40:21;;;;;;;20.07;16.13;;;;;;;5.75;100.00;96686.22;5033593;28;20425;-69
2021/11/01 01:42:50;;;;;;;18.57;16.03;;;;;;;5.77;100.00;96689.50;5029858;28;20235;-69
2021/11/01 01:45:18;;;;;;;18.30;16.07;;;;;;;5.74;100.00;96690.66;5051259;28;20203;-69
2021/11/01 01:47:47;;;;;;;21.20;16.17;;;;;;;5.69;100.00;96692.94;5054413;28;20207;-67
2021/11/01 01:50:17;;;;;;;17.80;15.97;;;;;;;5.84;100.00;96703.63;5049835;28;20207;-68
2021/11/01 01:52:48;;;;;;;18.47;16.00;;;;;;;5.72;100.00;96703.13;5054056;28;20682;-67
2021/11/01 01:55:18;;;;;;;21.03;16.07;;;;;;;5.77;100.00;96703.44;5023303;28;20219;-67
2021/11/01 01:57:45;;;;;;;18.43;15.90;;;;;;;5.74;100.00;96695.91;5030656;28;20203;-67
2021/11/01 02:00:25;;;;;;;19.20;17.03;;;;;;;5.68;100.00;96691.31;5051172;28;20432;-67
2021/11/01 02:02:54;;;;;;;21.77;16.07;;;;;;;5.65;100.00;96681.13;5050855;28;20229;-68
2021/11/01 02:05:24;;;;;;;19.33;16.20;;;;;;;5.63;100.00;96685.72;5054071;28;20614;-67
2021/11/01 02:07:54;;;;;;;17.00;15.17;;;;;;;5.62;100.00;96681.47;5048082;28;20413;-69
2021/11/01 02:10:27;;;;;;;25.80;18.40;;;;;;;5.69;100.00;96689.50;5016307;28;20909;-68
2021/11/01 02:12:58;;;;;;;21.20;17.63;;;;;;;5.75;100.00;96675.72;5041798;28;20531;-69
2021/11/01 02:15:29;;;;;;;19.00;16.73;;;;;;;5.82;100.00;96678.47;5046496;28;20237;-67
2021/11/01 02:17:58;;;;;;;18.27;15.67;;;;;;;5.77;100.00;96674.53;5053179;28;20656;-68
2021/11/01 02:20:34;;;;;;;21.33;18.03;;;;;;;5.83;100.00;96672.22;5053165;28;20302;-69
2021/11/01 02:23:10;;;;;;;20.93;15.80;;;;;;;5.79;100.00;96672.56;5047831;28;20218;-68
2021/11/01 02:25:41;;;;;;;19.13;17.13;;;;;;;5.78;100.00;96675.38;5017877;28;20235;-67
2021/11/01 02:28:12;;;;;;;20.23;17.13;;;;;;;5.88;100.00;96678.63;5038231;28;20336;-67
2021/11/01 02:30:40;;;;;;;19.83;16.40;;;;;;;6.03;100.00;96677.97;5029629;28;20701;-68
2021/11/01 02:33:10;;;;;;;19.10;16.77;;;;;;;6.12;100.00;96670.91;5036608;28;20241;-68
2021/11/01 02:35:38;;;;;;;19.70;17.40;;;;;;;6.16;100.00;96678.28;5033759;28;20826;-67
2021/11/01 02:38:08;;;;;;;18.97;16.57;;;;;;;6.16;100.00;96666.94;5055161;28;20582;-67
2021/11/01 02:40:36;;;;;;;18.37;16.37;;;;;;;6.11;100.00;96669.25;5012974;28;20203;-68
2021/11/01 02:43:06;;;;;;;17.80;16.00;;;;;;;6.20;100.00;96661.19;5050531;28;20227;-68
2021/11/01 02:45:35;;;;;;;18.87;16.87;;;;;;;6.30;100.00;96653.09;5026933;28;20458;-68
2021/11/01 02:48:03;;;;;;;22.90;17.47;;;;;;;6.25;100.00;96660.69;5039198;28;20543;-67
2021/11/01 02:50:32;;;;;;;19.47;17.30;;;;;;;6.29;100.00;96653.25;5051151;28;20203;-68
2021/11/01 02:53:00;;;;;;;21.57;18.30;;;;;;;6.22;100.00;96651.31;5056540;28;20444;-68
2021/11/01 02:55:28;;;;;;;21.53;17.63;;;;;;;6.23;100.00;96638.97;5049682;28;20206;-68
2021/11/01 02:57:56;;;;;;;20.13;16.93;;;;;;;6.26;100.00;96641.28;4974822;28;20384;-68
2021/11/01 03:00:28;;;;;;;22.07;18.90;;;;;;;6.22;100.00;96640.78;5040697;28;20214;-69
2021/11/01 03:02:57;;;;;;;20.87;18.03;;;;;;;6.29;100.00;96640.94;5047936;28;20223;-69
2021/11/01 03:05:28;;;;;;;20.67;17.67;;;;;;;6.22;100.00;96646.03;5044252;28;20268;-68
2021/11/01 03:07:58;;;;;;;18.80;16.57;;;;;;;6.23;100.00;96650.31;5051636;28;20462;-67
2021/11/01 03:10:26;;;;;;;22.60;18.90;;;;;;;6.17;100.00;96650.16;5054028;28;20207;-68
2021/11/01 03:12:55;;;;;;;24.97;19.30;;;;;;;6.23;100.00;96652.09;5009843;28;20654;-69
2021/11/01 03:15:24;;;;;;;20.57;18.20;;;;;;;6.17;100.00;96651.00;5052608;28;20207;-68
2021/11/01 03:17:58;;;;;;;19.27;17.20;;;;;;;6.16;100.00;96656.41;5050432;28;20798;-68
2021/11/01 03:20:28;;;;;;;19.77;17.67;;;;;;;6.14;100.00;96655.75;5053577;28;20203;-69
2021/11/01 03:22:59;;;;;;;20.77;18.57;;;;;;;6.19;100.00;96651.66;5040324;28;20333;-69
2021/11/01 03:25:34;;;;;;;20.97;17.40;;;;;;;6.19;100.00;96656.91;5053551;28;20326;-68
2021/11/01 03:28:04;;;;;;;19.33;17.23;;;;;;;6.13;100.00;96660.22;5049832;28;20274;-68
2021/11/01 03:30:34;;;;;;;18.80;16.77;;;;;;;6.17;100.00;96668.56;5009166;28;20211;-68
2021/11/01 03:33:04;;;;;;;18.77;16.73;;;;;;;6.15;100.00;96667.94;5049116;28;20502;-68
2021/11/01 03:35:33;;;;;;;21.10;18.23;;;;;;;6.08;100.00;96678.31;5042763;28;20211;-68
2021/11/01 03:38:02;;;;;;;23.43;20.07;;;;;;;6.21;100.00;96673.34;5043375;28;20265;-67
2021/11/01 03:40:33;;;;;;;20.53;18.00;;;;;;;6.21;100.00;96675.13;5033898;28;20222;-68
2021/11/01 03:43:04;;;;;;;20.77;17.30;;;;;;;6.22;100.00;96685.50;5052290;28;20892;-68
2021/11/01 03:45:33;;;;;;;21.03;18.10;;;;;;;6.23;100.00;96675.78;5007954;28;20211;-68
2021/11/01 03:48:04;;;;;;;23.50;19.57;;;;;;;6.30;100.00;96686.47;5052112;28;20210;-68
2021/11/01 03:50:38;;;;;;;23.87;19.63;;;;;;;6.35;100.00;96692.03;5039460;28;20210;-69
2021/11/01 03:53:06;;;;;;;21.90;18.87;;;;;;;6.35;100.00;96690.25;5036751;28;20231;-67
2021/11/01 03:55:34;;;;;;;20.73;18.53;;;;;;;6.44;100.00;96684.94;5048858;28;20209;-68
2021/11/01 03:58:02;;;;;;;22.77;17.50;;;;;;;6.58;100.00;96694.75;5053065;28;20533;-68
2021/11/01 04:00:34;;;;;;;23.47;19.00;;;;;;;6.64;100.00;96690.63;5010669;28;20207;-68
2021/11/01 04:03:04;;;;;;;18.80;16.77;;;;;;;6.64;100.00;96695.91;5046939;28;20226;-68
2021/11/01 04:05:32;;;;;;;20.83;18.63;;;;;;;6.75;100.00;96703.41;5053638;28;20211;-68
2021/11/01 04:08:00;;;;;;;19.23;17.20;;;;;;;6.68;100.00;96712.19;5037764;28;20210;-68
2021/11/01 04:10:28;;;;;;;20.87;18.37;;;;;;;6.84;100.00;96714.72;5048227;28;20206;-68
2021/11/01 04:12:56;;;;;;;20.70;17.93;;;;;;;6.78;100.00;96712.78;5051600;28;20223;-67
2021/11/01 04:15:25;;;;;;;21.70;18.10;;;;;;;6.86;100.00;96719.84;5006477;28;20625;-67
2021/11/01 04:17:56;;;;;;;22.07;18.10;;;;;;;6.95;100.00;96711.69;5040609;28;20325;-68
2021/11/01 04:20:49;;;;;;;20.73;17.23;;;;;;;6.94;100.00;96720.59;5047265;28;20560;-67
2021/11/01 04:23:18;;;;;;;19.13;17.13;;;;;;;6.95;100.00;96726.69;5047631;28;20359;-67
2021/11/01 04:25:46;;;;;;;19.23;16.83;;;;;;;7.29;100.00;96748.41;5032410;28;20214;-69
2021/11/01 04:28:14;;;;;;;19.30;17.23;;;;;;;7.33;100.00;96747.06;5050158;28;20209;-68
2021/11/01 04:30:46;;;;;;;19.63;17.53;;;;;;;7.27;100.00;96743.31;5020040;28;20219;-68
2021/11/01 04:33:18;;;;;;;21.97;16.40;;;;;;;7.22;100.00;96738.56;5047441;28;20231;-67
2021/11/01 04:35:47;;;;;;;19.83;16.60;;;;;;;7.22;100.00;96740.41;5049001;28;20575;-69
2021/11/01 04:38:24;;;;;;;20.87;18.33;;;;;;;7.28;100.00;96737.06;5026755;28;20206;-67
2021/11/01 04:41:01;;;;;;;20.50;17.17;;;;;;;7.38;100.00;96739.44;5048511;28;20212;-69
2021/11/01 04:54:38;;;;;;;17.47;15.67;;;;;;;7.37;100.00;96745.72;5038967;28;20689;-68
2021/11/01 04:57:07;;;;;;;18.00;16.07;;;;;;;7.34;100.00;96761.88;5028654;28;20218;-68
2021/11/01 04:59:35;;;;;;;20.23;17.13;;;;;;;7.23;100.00;96771.81;5045498;28;20210;-69
2021/11/01 05:02:04;;;;;;;20.70;17.23;;;;;;;7.25;100.00;96763.75;5031317;28;20227;-69
2021/11/01 05:04:36;;;;;;;22.93;16.97;;;;;;;7.13;100.00;96773.03;5010068;28;20727;-68
2021/11/01 05:07:07;;;;;;;18.87;16.87;;;;;;;7.02;100.00;96769.00;5043736;28;20454;-70
2021/11/01 05:09:38;;;;;;;23.57;17.50;;;;;;;7.13;100.00;96783.56;5047478;28;20423;-68
2021/11/01 05:12:18;;;;;;;22.17;18.20;;;;;;;7.02;100.00;96777.69;5048767;28;20223;-70
2021/11/01 05:14:57;;;;;;;17.93;16.03;;;;;;;7.00;100.00;96789.38;5042119;28;20230;-70
2021/11/01 05:17:33;;;;;;;20.43;17.87;;;;;;;6.88;100.00;96800.28;5026278;28;20459;-69
2021/11/01 05:20:07;;;;;;;19.13;17.03;;;;;;;6.87;100.00;96800.47;5022030;28;20215;-70
2021/11/01 05:22:43;;;;;;;21.23;16.47;;;;;;;6.85;100.00;96808.53;5045774;28;20231;-70
2021/11/01 05:25:15;;;;;;;21.60;18.70;;;;;;;6.91;100.00;96815.75;5044559;28;20557;-67
2021/11/01 05:27:48;;;;;;;19.63;16.37;;;;;;;6.99;100.00;96811.44;5049447;28;20214;-68
2021/11/01 05:30:19;;;;;;;22.23;17.83;;;;;;;7.02;100.00;96821.66;5046101;28;20440;-68
2021/11/01 05:32:57;;;;;;;19.87;17.47;;;;;;;6.98;100.00;96826.44;5049150;28;20223;-67
2021/11/01 05:35:25;;;;;;;18.97;16.97;;;;;;;6.92;100.00;96827.94;5048875;28;20318;-67
2021/11/01 05:37:54;;;;;;;18.97;16.83;;;;;;;6.95;100.00;96829.41;5017318;28;20590;-67
2021/11/01 05:40:23;;;;;;;18.57;16.33;;;;;;;6.93;100.00;96834.03;5032759;28;20206;-67
2021/11/01 05:42:51;;;;;;;19.13;16.93;;;;;;;6.88;100.00;96834.53;5047838;28;20233;-68
2021/11/01 05:45:19;;;;;;;21.20;17.90;;;;;;;6.94;100.00;96825.16;5045979;28;20613;-68
2021/11/01 05:47:54;;;;;;;19.83;17.27;;;;;;;7.01;100.00;96833.16;5045605;28;20508;-67
2021/11/01 05:50:24;;;;;;;20.67;17.53;;;;;;;7.03;100.00;96834.66;5049272;28;20440;-70
2021/11/01 05:52:53;;;;;;;21.33;17.53;;;;;;;7.16;100.00;96846.47;5016143;28;20227;-68
2021/11/01 05:55:32;;;;;;;18.83;16.83;;;;;;;7.16;100.00;96851.72;5049398;28;20227;-69
2021/11/01 05:58:07;;;;;;;17.73;15.83;;;;;;;7.10;100.00;96856.69;5034389;28;20210;-69
2021/11/01 06:03:20;;;;;;;18.17;16.27;;;;;;;7.18;100.00;96861.13;5032998;28;20441;-68
2021/11/01 06:06:16;;;;;;;17.70;15.83;;;;;;;7.16;100.00;96862.25;5054352;28;20210;-70
2021/11/01 06:09:02;;;;;;;18.23;16.23;;;;;;;7.31;100.00;96868.47;5016223;28;20214;-69
2021/11/01 06:14:16;;;;;;;19.43;16.33;;;;;;;7.29;100.00;96877.53;5047447;28;20414;-67
2021/11/01 06:16:44;;;;;;;18.27;15.27;;;;;;;7.52;100.00;96873.16;5054531;28;20210;-69
2021/11/01 06:19:12;;;;;;;18.37;16.33;;;;;;;7.40;100.00;96869.28;5051599;28;20297;-68
2021/11/01 06:21:42;;;;;;;19.33;14.73;;;;;;;7.38;100.00;96881.78;5048839;28;20646;-69
2021/11/01 06:24:26;;;;;;;19.03;15.40;;;;;;;7.43;100.00;96884.75;4997601;28;20797;-67
2021/11/01 06:26:54;;;;;;;20.80;15.53;;;;;;;7.41;100.00;96891.19;5051593;28;20698;-69
2021/11/01 06:29:28;;;;;;;20.03;15.67;;;;;;;7.46;100.00;96899.38;5054138;28;20270;-68
2021/11/01 06:32:05;;;;;;;17.13;15.17;;;;;;;7.51;100.00;96897.88;5053096;28;20318;-68
2021/11/01 06:34:43;;;;;;;17.07;15.27;;;;;;;7.52;100.00;96907.44;5055520;28;20218;-68
2021/11/01 06:40:24;;;;;;;16.77;13.40;;;;;;;7.64;100.00;96909.69;4984580;28;21504;-69
2021/11/01 06:43:03;;;;;;;16.93;15.13;;;;;;;7.57;100.00;96927.19;5055044;28;20227;-70
2021/11/01 07:16:33;;;;;;;18.57;15.93;;;;;;;7.91;100.00;96976.16;5047608;28;20195;-70
2021/11/01 07:19:05;;;;;;;18.07;15.07;;;;;;;7.91;100.00;96986.72;5041446;28;20215;-72
2021/11/01 07:21:57;;;;;;;18.20;16.30;;;;;;;7.93;100.00;96996.09;5048313;28;20227;-73
2021/11/01 08:17:41;;;;;;;16.30;14.20;;;;;;;8.68;100.00;96966.63;5031767;28;20480;-69
2021/11/01 08:20:45;;;;;;;14.47;13.07;;;;;;;8.71;100.00;96968.13;5030775;28;20711;-69
2021/11/01 08:29:01;;;;;;;18.43;16.53;;;;;;;8.89;100.00;96965.16;5046811;28;20203;-71
2021/11/01 08:51:45;;;;;;;17.60;15.90;;;;;;;8.96;100.00;96964.28;5024546;28;20227;-67
2021/11/01 09:22:21;;;;;;;13.27;11.97;;;;;;;9.04;100.00;96978.41;5037621;28;20230;-67
2021/11/01 09:24:52;;;;;;;15.20;13.70;;;;;;;9.10;100.00;96986.47;5037881;28;20466;-68
2021/11/01 09:27:25;;;;;;;14.70;13.33;;;;;;;9.14;100.00;96992.19;5050872;28;20689;-68
2021/11/01 09:30:05;;;;;;;15.20;12.97;;;;;;;9.16;100.00;96990.19;5050124;28;20234;-68
2021/11/01 09:38:28;;;;;;;13.93;12.67;;;;;;;9.31;100.00;96992.03;5050062;28;20658;-70
2021/11/01 09:41:07;;;;;;;10.90;9.97;;;;;;;9.22;100.00;96993.94;5040240;28;22410;-69
2021/11/01 09:43:37;;;;;;;10.90;9.90;;;;;;;9.11;100.00;97001.31;5048563;28;20245;-70
2021/11/01 09:46:10;;;;;;;10.97;9.97;;;;;;;9.14;100.00;97002.75;5041987;28;20210;-70
2021/11/01 09:48:39;;;;;;;15.03;11.17;;;;;;;9.09;100.00;96999.84;5047343;28;20360;-69
2021/11/01 09:51:07;;;;;;;10.30;8.87;;;;;;;9.06;100.00;96997.56;5017704;28;20215;-68
2021/11/01 09:53:40;;;;;;;12.73;11.47;;;;;;;9.14;100.00;97001.94;5047095;28;20215;-69
2021/11/01 09:56:20;;;;;;;9.63;8.63;;;;;;;9.17;100.00;97007.69;5046058;28;20749;-67
2021/11/01 10:01:36;;;;;;;7.00;6.27;;;;;;;9.16;100.00;97008.69;5043788;28;20226;-70
2021/11/01 10:04:04;;;;;;;7.00;6.37;;;;;;;9.19;100.00;97007.53;5054058;28;20210;-68
2021/11/01 10:06:32;;;;;;;5.40;5.00;;;;;;;9.19;100.00;97000.41;5015640;28;20214;-70
2021/11/01 10:09:02;;;;;;;5.40;4.90;;;;;;;9.25;100.00;97004.16;5049729;28;20315;-70
2021/11/01 10:11:34;;;;;;;5.00;4.47;;;;;;;9.21;100.00;97014.25;5022560;28;20690;-72
2021/11/01 10:14:05;;;;;;;3.90;3.60;;;;;;;9.23;100.00;97014.91;5023150;28;20202;-71
2021/11/01 10:19:33;;;;;;;3.10;2.90;;;;;;;9.12;100.00;97010.88;5041063;28;20904;-68
2021/11/01 10:22:04;;;;;;;3.10;2.57;;;;;;;9.00;100.00;97017.56;4995628;28;20234;-68
2021/11/01 10:24:38;;;;;;;3.03;2.83;;;;;;;8.83;100.00;97019.53;5035490;28;20416;-69
2021/11/01 10:27:07;;;;;;;2.50;2.30;;;;;;;8.63;100.00;97017.38;5042966;28;20198;-71
2021/11/01 10:29:58;;;;;;;4.53;2.90;;;;;;;8.62;100.00;97020.16;5048299;28;20207;-69
2021/11/01 10:32:36;;;;;;;3.00;1.80;;;;;;;8.40;100.00;97015.50;5012753;28;20257;-65
2021/11/01 10:35:18;;;;;;;1.87;1.77;;;;;;;8.40;100.00;97018.13;5037510;28;20553;-68
2021/11/01 10:38:10;;;;;;;2.90;1.33;;;;;;;8.38;100.00;97017.47;5044844;28;20284;-69
2021/11/01 10:40:44;;;;;;;2.47;1.93;;;;;;;8.27;100.00;97020.53;5053016;28;21126;-70
2021/11/01 11:11:23;;;;;;;5.53;2.07;;;;;;;8.45;100.00;97004.41;5052369;28;20226;-70
2021/11/01 11:13:57;;;;;;;1.50;1.40;;;;;;;8.53;100.00;96987.75;5043888;28;20690;-68
2021/11/01 11:19:21;;;;;;;1.73;1.63;;;;;;;8.55;100.00;96967.25;5036432;28;20263;-70
2021/11/01 11:27:55;;;;;;;3.97;2.20;;;;;;;8.63;100.00;96969.84;4993588;28;20302;-73
2021/11/01 11:33:47;;;;;;;4.30;2.00;;;;;;;8.64;100.00;96973.28;5025233;28;20687;-71
2021/11/01 11:42:33;;;;;;;2.30;2.20;;;;;;;8.76;100.00;96978.97;5002614;28;20222;-70
2021/11/01 11:48:03;;;;;;;3.03;2.40;;;;;;;8.65;100.00;96983.69;5046266;28;20449;-69
2021/11/01 11:50:33;;;;;;;3.03;2.00;;;;;;;8.65;100.00;96982.84;5039721;28;20210;-67
2021/11/01 11:53:14;;;;;;;4.37;2.20;;;;;;;8.68;100.00;96983.31;5031601;28;20645;-69
2021/11/01 11:55:43;;;;;;;3.27;2.13;;;;;;;8.68;100.00;96980.69;5051639;28;20687;-68
2021/11/01 11:58:13;;;;;;;4.30;2.30;;;;;;;8.69;100.00;96989.41;5001226;28;20215;-68
2021/11/01 12:00:42;;;;;;;4.17;2.07;;;;;;;8.69;100.00;96994.69;5048456;28;20226;-68
2021/11/01 12:03:16;;;;;;;1.73;1.60;;;;;;;8.51;100.00;96998.47;5049735;28;20245;-68
2021/11/01 12:05:49;;;;;;;2.07;1.80;;;;;;;8.54;100.00;97002.59;5029835;28;20205;-69
2021/11/01 12:08:23;;;;;;;2.77;1.87;;;;;;;8.46;100.00;97003.41;5052943;28;20238;-71
2021/11/01 12:19:23;;;;;;;2.27;2.17;;;;;;;8.27;100.00;96991.50;5039081;28;20302;-71
2021/11/01 12:21:53;;;;;;;4.10;2.10;;;;;;;8.26;100.00;96985.38;5039362;28;20226;-73
2021/11/01 12:24:23;;;;;;;3.37;2.00;;;;;;;8.31;100.00;96987.50;5050517;28;20355;-72
2021/11/01 12:27:00;;;;;;;5.40;4.90;;;;;;;8.34;100.00;96983.69;5023638;28;20199;-73
2021/11/01 12:29:28;;;;;;;4.03;2.17;;;;;;;8.44;100.00;96989.56;5012338;28;20210;-68
2021/11/01 12:32:04;;;;;;;2.90;2.17;;;;;;;8.50;100.00;96985.41;5050022;28;20908;-69
2021/11/01 12:34:39;;;;;;;3.70;2.17;;;;;;;8.37;100.00;96992.06;5026766;28;20245;-70
2021/11/01 12:37:14;;;;;;;2.60;2.10;;;;;;;8.39;100.00;96991.91;5033535;28;20239;-68
2021/11/01 12:39:46;;;;;;;3.93;2.30;;;;;;;8.38;100.00;96987.63;5042427;28;20210;-69
2021/11/01 12:42:41;;;;;;;3.23;2.60;;;;;;;8.37;100.00;96993.91;5038414;28;20234;-67
2021/11/01 12:57:05;;;;;;;3.83;2.47;;;;;;;8.56;100.00;96944.28;5049843;28;20222;-70
2021/11/01 12:59:42;;;;;;;4.03;3.63;;;;;;;8.54;100.00;96942.66;5042781;28;20210;-66
2021/11/01 13:02:13;;;;;;;3.83;3.53;;;;;;;8.45;100.00;96941.06;5017497;28;20236;-70
2021/11/01 13:04:42;;;;;;;3.47;2.80;;;;;;;8.45;100.00;96940.22;5034629;28;20660;-72
2021/11/01 13:07:25;;;;;;;3.27;2.90;;;;;;;8.39;100.00;96947.03;5021185;28;20959;-69
2021/11/01 13:09:56;;;;;;;3.47;3.00;;;;;;;8.46;100.00;96953.25;5048426;28;20497;-71
2021/11/01 13:12:58;;;;;;;3.07;2.83;;;;;;;8.42;100.00;96959.03;5050877;28;20218;-68
2021/11/01 13:18:44;;;;;;;3.30;3.10;;;;;;;8.42;100.00;96951.97;5048705;28;20209;-70
2021/11/01 13:21:17;;;;;;;3.47;3.20;;;;;;;8.44;100.00;96955.25;5023935;28;21628;-69
2021/11/01 13:23:55;;;;;;;2.97;2.77;;;;;;;8.43;100.00;96953.59;5037766;28;20207;-70
2021/11/01 13:26:35;;;;;;;2.67;2.47;;;;;;;8.33;100.00;96953.84;5050701;28;20206;-69
2021/11/01 13:35:12;;;;;;;2.70;2.57;;;;;;;8.31;100.00;96940.00;4954192;28;20698;-68
2021/11/01 13:37:41;;;;;;;3.63;2.93;;;;;;;8.33;100.00;96932.72;5039633;28;20517;-71
2021/11/01 13:40:12;;;;;;;8.40;3.20;;;;;;;8.44;100.00;96928.00;5045902;28;20203;-69
2021/11/01 13:42:46;;;;;;;3.00;2.77;;;;;;;8.38;100.00;96932.19;5045948;28;20239;-67
2021/11/01 13:45:16;;;;;;;3.60;3.30;;;;;;;8.46;100.00;96926.00;5044128;28;20440;-71
2021/11/01 13:47:47;;;;;;;3.27;3.07;;;;;;;8.39;100.00;96921.44;5045405;28;20207;-68
2021/11/01 13:50:17;;;;;;;5.80;3.37;;;;;;;8.42;100.00;96932.66;5003433;28;20230;-69
2021/11/01 13:52:55;;;;;;;3.20;3.00;;;;;;;8.46;100.00;96923.38;5043862;28;20223;-65
2021/11/01 13:55:32;;;;;;;3.60;3.40;;;;;;;8.44;100.00;96931.50;5034753;28;20278;-69
2021/11/01 13:58:05;;;;;;;4.57;4.20;;;;;;;8.47;100.00;96925.84;5038221;28;20225;-70
2021/11/01 14:00:44;;;;;;;5.00;4.60;;;;;;;8.46;100.00;96932.13;5048423;28;20401;-70
2021/11/01 14:03:26;;;;;;;5.27;4.80;;;;;;;8.55;100.00;96925.00;5023441;28;20222;-70
2021/11/01 14:11:48;;;;;;;4.07;3.67;;;;;;;8.32;100.00;96920.50;5025373;28;20341;-69
2021/11/01 14:14:38;;;;;;;3.20;3.00;;;;;;;8.27;100.00;96912.31;5036727;28;20210;-68
2021/11/01 14:17:28;;;;;;;2.90;2.60;;;;;;;8.17;100.00;96925.72;5044198;28;20245;-69
2021/11/01 14:28:39;;;;;;;2.83;2.70;;;;;;;8.17;100.00;96920.44;5031801;28;20208;-71
2021/11/01 14:31:52;;;;;;;3.20;2.90;;;;;;;8.16;100.00;96915.34;5050951;28;21103;-69
2021/11/01 14:34:58;;;;;;;2.70;2.50;;;;;;;8.11;100.00;96913.22;5026573;28;20225;-71
2021/11/01 14:59:44;;;;;;;6.57;5.40;;;;;;;7.87;100.00;96891.28;5035389;28;20207;-70
2021/11/01 15:08:42;;;;;;;3.50;3.20;;;;;;;7.85;100.00;96889.81;5031600;28;20218;-71
2021/11/01 15:16:48;;;;;;;2.87;2.67;;;;;;;7.86;100.00;96892.25;5050397;28;20214;-68
2021/11/01 15:22:33;;;;;;;3.43;2.70;;;;;;;7.64;100.00;96883.31;4958566;28;20230;-69
2021/11/01 15:25:34;;;;;;;3.73;3.53;;;;;;;7.59;100.00;96877.75;5038911;28;20482;-69
2021/11/01 15:31:09;;;;;;;4.53;4.13;;;;;;;7.48;100.00;96898.22;5010846;28;20218;-68
2021/11/01 16:15:46;;;;;;;4.33;4.00;;;;;;;7.20;100.00;96896.03;5052054;28;20207;-70
2021/11/01 16:18:15;;;;;;;5.67;4.37;;;;;;;7.28;100.00;96894.34;5051969;28;20288;-70
2021/11/01 16:20:46;;;;;;;4.60;4.20;;;;;;;7.21;100.00;96894.22;5049053;28;20206;-69
2021/11/01 16:26:08;;;;;;;6.40;5.60;;;;;;;7.29;100.00;96888.09;5053346;28;20487;-69
2021/11/01 16:28:36;;;;;;;7.17;6.47;;;;;;;7.22;100.00;96883.50;5012299;28;20219;-69
2021/11/01 16:33:52;;;;;;;7.03;6.40;;;;;;;7.19;100.00;96889.09;5045540;28;20203;-67
2021/11/01 16:36:40;;;;;;;6.17;5.63;;;;;;;7.11;100.00;96883.88;5052678;28;20206;-68
2021/11/01 16:39:08;;;;;;;5.83;5.33;;;;;;;7.07;100.00;96875.47;5047172;28;20241;-69
2021/11/01 16:41:37;;;;;;;6.90;5.70;;;;;;;7.12;100.00;96874.13;5014458;28;20776;-71
2021/11/01 16:44:15;;;;;;;6.77;5.80;;;;;;;7.04;100.00;96886.34;5046424;28;20210;-71
2021/11/01 16:46:45;;;;;;;7.23;5.77;;;;;;;7.10;100.00;96884.88;5048511;28;20538;-70
2021/11/01 16:49:13;;;;;;;7.13;6.43;;;;;;;7.06;100.00;96888.81;5050344;28;20288;-71
2021/11/01 16:51:43;;;;;;;6.80;6.17;;;;;;;7.00;100.00;96879.78;5048686;28;20451;-68
2021/11/01 16:54:14;;;;;;;6.83;6.33;;;;;;;7.01;100.00;96893.75;5051674;28;20621;-70
2021/11/01 16:57:07;;;;;;;6.07;5.67;;;;;;;6.94;100.00;96886.53;5018802;28;20226;-71
2021/11/01 16:59:43;;;;;;;7.07;6.33;;;;;;;7.04;100.00;96890.81;5045292;28;20266;-70
2021/11/01 17:05:03;;;;;;;14.70;10.57;;;;;;;6.90;100.00;96890.50;5035138;28;20206;-70
2021/11/01 17:07:43;;;;;;;15.70;11.20;;;;;;;6.93;100.00;96889.34;5048164;28;20202;-71
2021/11/01 17:10:43;;;;;;;11.90;8.63;;;;;;;6.90;100.00;96897.59;5050413;28;20858;-70
2021/11/01 17:21:46;;;;;;;10.20;9.40;;;;;;;6.83;100.00;96907.97;5045131;28;20270;-70
2021/11/01 17:24:19;;;;;;;8.60;7.77;;;;;;;6.86;100.00;96902.34;5052726;28;20206;-70
2021/11/01 17:30:05;;;;;;;10.00;9.10;;;;;;;6.77;100.00;96896.28;4989441;28;20556;-70
2021/11/01 17:35:35;;;;;;;7.70;6.97;;;;;;;6.83;100.00;96904.53;5051110;28;20354;-71
2021/11/01 18:37:57;;;;;;;6.43;4.10;;;;;;;6.63;100.00;96886.44;5047751;28;20293;-68
2021/11/01 18:40:42;;;;;;;4.60;4.20;;;;;;;6.70;100.00;96890.03;5036307;28;20751;-70
2021/11/01 18:43:19;;;;;;;6.57;4.30;;;;;;;6.76;100.00;96883.28;5045471;28;20465;-69
2021/11/01 18:51:46;;;;;;;5.93;5.53;;;;;;;6.50;100.00;96856.19;5020798;28;20247;-71
2021/11/01 18:54:18;;;;;;;5.63;5.17;;;;;;;6.54;100.00;96858.47;5052741;28;20420;-69
2021/11/01 18:56:47;;;;;;;6.53;5.93;;;;;;;6.58;100.00;96860.59;5039799;28;20678;-70
2021/11/01 18:59:18;;;;;;;6.73;6.13;;;;;;;6.63;100.00;96862.72;5052453;28;20543;-71
2021/11/01 19:01:51;;;;;;;6.53;5.93;;;;;;;6.62;100.00;96866.34;5051097;28;20223;-70
2021/11/01 19:04:24;;;;;;;5.20;4.80;;;;;;;6.60;100.00;96870.97;5035920;28;20284;-69